Time;durP1;ratioP1;P1;durP2;ratioP2;P2;SDS_P1;SDS_P2;PMS_P1;PMS_P2;Temp;Humidity;BMP_temperature;BMP_pressure;BME280_temperature;BME280_humidity;BME280_pressure;Samples;Min_cycle;Max_cycle;Signal;HPM_P1;HPM_P2
2022/01/29 00:01:14;;;;;;;56.85;35.35;;;;;;;;;;4995458;28;92467;-69
2022/01/29 00:03:40;;;;;;;52.40;32.45;;;;;;;;;;4992996;28;92551;-69
2022/01/29 00:06:06;;;;;;;61.33;33.85;;;;;;;;;;4998002;28;93471;-69
2022/01/29 00:08:33;;;;;;;61.33;36.25;;;;;;;;;;5013126;28;92575;-69
2022/01/29 00:11:07;;;;;;;51.08;33.38;;;;;;;;;;5009456;28;93504;-69
2022/01/29 00:13:34;;;;;;;58.70;33.60;;;;;;;;;;5004031;28;92935;-69
2022/01/29 00:16:01;;;;;;;58.20;35.08;;;;;;;;;;5013299;28;93010;-69
2022/01/29 00:18:27;;;;;;;61.00;34.63;;;;;;;;;;5005427;28;93858;-70
2022/01/29 00:20:53;;;;;;;53.08;29.23;;;;;;;;;;5009461;28;94929;-69
2022/01/29 00:23:20;;;;;;;59.90;36.42;;;;;;;;;;4998546;28;95651;-69
2022/01/29 00:25:46;;;;;;;64.32;36.15;;;;;;;;;;4997865;28;94530;-69
2022/01/29 00:28:14;;;;;;;68.45;35.28;;;;;;;;;;4996767;28;93050;-69
2022/01/29 00:30:43;;;;;;;54.10;32.22;;;;;;;;;;4993977;28;92929;-69
2022/01/29 00:33:09;;;;;;;72.68;36.58;;;;;;;;;;5013118;28;94534;-69
2022/01/29 00:35:36;;;;;;;67.53;35.15;;;;;;;;;;5009012;28;93081;-69
2022/01/29 00:38:04;;;;;;;67.47;37.67;;;;;;;;;;4988509;28;94651;-69
2022/01/29 00:40:36;;;;;;;68.78;37.28;;;;;;;;;;5006423;28;92940;-69
2022/01/29 00:43:03;;;;;;;63.85;35.92;;;;;;;;;;5010484;28;92956;-70
2022/01/29 00:45:30;;;;;;;64.68;36.67;;;;;;;;;;4991010;28;96402;-71
2022/01/29 00:47:57;;;;;;;54.90;34.72;;;;;;;;;;4998183;28;92527;-70
2022/01/29 00:50:24;;;;;;;63.40;36.75;;;;;;;;;;5009875;28;94058;-70
2022/01/29 00:52:51;;;;;;;62.47;36.25;;;;;;;;;;4981992;28;93761;-69
2022/01/29 00:55:17;;;;;;;65.97;36.30;;;;;;;;;;4990981;28;93149;-69
2022/01/29 00:57:44;;;;;;;65.10;37.05;;;;;;;;;;4992211;28;92931;-69
2022/01/29 01:00:11;;;;;;;61.42;34.05;;;;;;;;;;5005039;28;94295;-70
2022/01/29 01:02:38;;;;;;;61.85;35.47;;;;;;;;;;4999831;28;93471;-70
2022/01/29 01:05:04;;;;;;;58.88;37.00;;;;;;;;;;5012036;28;94174;-69
2022/01/29 01:07:31;;;;;;;62.65;35.50;;;;;;;;;;5001246;28;92686;-70
2022/01/29 01:09:57;;;;;;;52.78;34.35;;;;;;;;;;4970529;28;95263;-70
2022/01/29 01:12:24;;;;;;;54.85;35.47;;;;;;;;;;5010516;28;93356;-70
2022/01/29 01:14:50;;;;;;;56.78;33.90;;;;;;;;;;5012933;28;92464;-70
2022/01/29 01:17:18;;;;;;;60.10;36.53;;;;;;;;;;4991465;28;94121;-70
2022/01/29 01:19:45;;;;;;;65.13;33.95;;;;;;;;;;5000215;28;93608;-70
2022/01/29 01:22:14;;;;;;;56.72;32.50;;;;;;;;;;5012942;28;92786;-70
2022/01/29 01:24:41;;;;;;;72.82;36.10;;;;;;;;;;5007591;28;93795;-68
2022/01/29 01:27:07;;;;;;;64.00;32.90;;;;;;;;;;4997806;28;91754;-68
2022/01/29 01:29:33;;;;;;;54.20;31.90;;;;;;;;;;4992180;28;93876;-68
2022/01/29 01:32:00;;;;;;;51.35;32.63;;;;;;;;;;4990534;28;94382;-69
2022/01/29 01:34:31;;;;;;;65.13;33.92;;;;;;;;;;4987896;28;94893;-68
2022/01/29 01:37:03;;;;;;;63.70;34.33;;;;;;;;;;5010912;28;95709;-70
2022/01/29 01:39:33;;;;;;;58.03;33.03;;;;;;;;;;4989384;28;94377;-69
2022/01/29 01:42:04;;;;;;;57.42;32.80;;;;;;;;;;5008376;28;92506;-70
2022/01/29 01:44:40;;;;;;;44.67;25.33;;;;;;;;;;5011552;28;94298;-69
2022/01/29 01:47:07;;;;;;;48.75;31.23;;;;;;;;;;5011195;28;92826;-70
2022/01/29 01:49:33;;;;;;;57.50;32.55;;;;;;;;;;5001172;28;94086;-69
2022/01/29 01:52:00;;;;;;;51.00;28.55;;;;;;;;;;4998304;28;93511;-69
2022/01/29 01:54:33;;;;;;;58.15;29.20;;;;;;;;;;4986820;28;92521;-69
2022/01/29 01:57:00;;;;;;;56.78;32.70;;;;;;;;;;4988017;28;92552;-70
2022/01/29 01:59:27;;;;;;;58.92;30.80;;;;;;;;;;4989910;28;96627;-68
2022/01/29 02:01:53;;;;;;;51.92;30.63;;;;;;;;;;4994346;28;93395;-68
2022/01/29 02:04:20;;;;;;;57.28;31.20;;;;;;;;;;5012019;28;93750;-68
2022/01/29 02:06:49;;;;;;;46.38;28.05;;;;;;;;;;4998552;28;94133;-69
2022/01/29 02:09:17;;;;;;;57.33;30.55;;;;;;;;;;4990967;28;93175;-69
2022/01/29 02:11:51;;;;;;;47.10;29.83;;;;;;;;;;5000949;28;93580;-69
2022/01/29 02:14:18;;;;;;;55.15;29.92;;;;;;;;;;5010435;28;92655;-68
2022/01/29 02:16:45;;;;;;;46.03;29.30;;;;;;;;;;4999503;28;94353;-69
2022/01/29 02:19:11;;;;;;;49.63;28.52;;;;;;;;;;5004817;28;93455;-69
2022/01/29 02:21:38;;;;;;;45.75;30.92;;;;;;;;;;5003305;28;92521;-69
2022/01/29 02:24:05;;;;;;;52.38;30.25;;;;;;;;;;5001529;28;94861;-69
2022/01/29 02:26:31;;;;;;;45.40;28.80;;;;;;;;;;5002456;28;94054;-69
2022/01/29 02:28:58;;;;;;;45.63;29.95;;;;;;;;;;4993538;28;93051;-69
2022/01/29 02:31:24;;;;;;;52.05;32.00;;;;;;;;;;4991450;28;94053;-69
2022/01/29 02:33:51;;;;;;;47.03;27.25;;;;;;;;;;5010825;28;93166;-69
2022/01/29 02:36:17;;;;;;;43.17;29.05;;;;;;;;;;5006986;28;93442;-69
2022/01/29 02:38:44;;;;;;;39.75;27.50;;;;;;;;;;4998561;28;93577;-69
2022/01/29 02:41:10;;;;;;;43.75;27.30;;;;;;;;;;5011626;28;92839;-69
2022/01/29 02:43:49;;;;;;;40.13;27.05;;;;;;;;;;5012008;28;93579;-69
2022/01/29 02:46:41;;;;;;;41.03;25.90;;;;;;;;;;5005256;28;94609;-69
2022/01/29 02:49:08;;;;;;;37.00;24.52;;;;;;;;;;5012913;28;94999;-69
2022/01/29 02:51:34;;;;;;;28.95;22.27;;;;;;;;;;5014931;28;94550;-69
2022/01/29 02:54:00;;;;;;;36.67;25.92;;;;;;;;;;5005969;28;92454;-69
2022/01/29 02:56:27;;;;;;;34.10;23.52;;;;;;;;;;5007322;28;93361;-69
2022/01/29 02:58:53;;;;;;;27.25;21.48;;;;;;;;;;5012717;28;94255;-69
2022/01/29 03:01:20;;;;;;;33.72;24.33;;;;;;;;;;4993276;28;92564;-69
2022/01/29 03:03:46;;;;;;;33.67;25.40;;;;;;;;;;4993691;28;93263;-69
2022/01/29 03:06:13;;;;;;;33.58;24.77;;;;;;;;;;5001158;28;93530;-69
2022/01/29 03:08:39;;;;;;;34.83;23.95;;;;;;;;;;5013738;28;92521;-69
2022/01/29 03:11:05;;;;;;;32.08;23.48;;;;;;;;;;5004239;28;94106;-70
2022/01/29 03:13:32;;;;;;;31.77;24.08;;;;;;;;;;5013417;28;94883;-69
2022/01/29 03:15:58;;;;;;;27.75;22.35;;;;;;;;;;5000001;28;96478;-70
2022/01/29 03:18:25;;;;;;;34.97;25.90;;;;;;;;;;4992855;28;92491;-70
2022/01/29 03:20:51;;;;;;;33.45;25.08;;;;;;;;;;5006195;28;92452;-69
2022/01/29 03:23:17;;;;;;;30.92;25.60;;;;;;;;;;5012894;28;93290;-70
2022/01/29 03:25:44;;;;;;;33.10;25.42;;;;;;;;;;5007855;28;94321;-69
2022/01/29 03:28:10;;;;;;;45.60;27.00;;;;;;;;;;5007399;28;92452;-69
2022/01/29 03:30:37;;;;;;;38.03;26.25;;;;;;;;;;5009711;28;92885;-69
2022/01/29 03:33:03;;;;;;;35.90;26.38;;;;;;;;;;5016431;28;93746;-69
2022/01/29 03:35:29;;;;;;;39.03;25.67;;;;;;;;;;5012884;28;95423;-68
2022/01/29 03:37:56;;;;;;;42.72;26.05;;;;;;;;;;5009046;28;96096;-70
2022/01/29 03:40:22;;;;;;;42.42;27.00;;;;;;;;;;5012217;28;92915;-69
2022/01/29 03:43:00;;;;;;;39.80;26.65;;;;;;;;;;5001176;28;94424;-69
2022/01/29 03:45:27;;;;;;;39.38;27.65;;;;;;;;;;4987982;28;94043;-69
2022/01/29 03:47:53;;;;;;;41.45;26.85;;;;;;;;;;4986345;28;92536;-69
2022/01/29 03:50:20;;;;;;;40.35;24.67;;;;;;;;;;5000050;28;94157;-68
2022/01/29 03:52:46;;;;;;;41.25;26.33;;;;;;;;;;5012795;28;94393;-69
2022/01/29 03:55:12;;;;;;;37.30;25.02;;;;;;;;;;5008349;28;92514;-69
2022/01/29 03:57:39;;;;;;;41.33;23.27;;;;;;;;;;4992162;28;93618;-69
2022/01/29 04:00:06;;;;;;;42.75;23.00;;;;;;;;;;5000407;28;94253;-69
2022/01/29 04:02:32;;;;;;;14.02;10.73;;;;;;;;;;5010075;28;95030;-69
2022/01/29 04:04:59;;;;;;;38.75;21.98;;;;;;;;;;4993374;28;94667;-69
2022/01/29 04:07:25;;;;;;;36.20;20.25;;;;;;;;;;4992498;28;92574;-69
2022/01/29 04:09:52;;;;;;;33.08;20.52;;;;;;;;;;4993383;28;93218;-69
2022/01/29 04:12:19;;;;;;;35.75;20.60;;;;;;;;;;4996481;28;93643;-69
2022/01/29 04:14:45;;;;;;;35.92;19.48;;;;;;;;;;5007084;28;94032;-70
2022/01/29 04:17:12;;;;;;;32.85;18.58;;;;;;;;;;5014951;28;94030;-69
2022/01/29 04:19:38;;;;;;;39.70;21.85;;;;;;;;;;5010240;28;91769;-69
2022/01/29 04:22:14;;;;;;;48.00;21.88;;;;;;;;;;4997832;28;93963;-70
2022/01/29 04:24:40;;;;;;;35.78;21.65;;;;;;;;;;5011836;28;94094;-69
2022/01/29 04:27:16;;;;;;;34.38;19.17;;;;;;;;;;5001485;28;95393;-69
2022/01/29 04:29:56;;;;;;;40.40;21.27;;;;;;;;;;4998907;28;95486;-69
2022/01/29 04:32:54;;;;;;;34.45;20.63;;;;;;;;;;5001387;28;93966;-68
2022/01/29 04:35:15;;;;;;;36.38;20.50;;;;;;;;;;5011830;28;92507;-69
2022/01/29 04:37:41;;;;;;;43.80;21.05;;;;;;;;;;5002040;28;92457;-69
2022/01/29 04:40:08;;;;;;;36.20;20.02;;;;;;;;;;5015392;28;93455;-69
2022/01/29 04:42:35;;;;;;;37.90;21.00;;;;;;;;;;4982071;28;94182;-68
2022/01/29 04:45:01;;;;;;;42.03;19.67;;;;;;;;;;4973378;28;93293;-69
2022/01/29 04:47:28;;;;;;;31.15;17.52;;;;;;;;;;4994919;28;93133;-68
2022/01/29 04:49:54;;;;;;;32.63;19.63;;;;;;;;;;4991610;28;94169;-69
2022/01/29 04:52:20;;;;;;;37.22;19.25;;;;;;;;;;5008037;28;95961;-69
2022/01/29 04:54:47;;;;;;;39.38;20.00;;;;;;;;;;5011548;28;92690;-68
2022/01/29 04:57:13;;;;;;;32.47;20.30;;;;;;;;;;5002058;28;93310;-69
2022/01/29 04:59:39;;;;;;;33.22;19.48;;;;;;;;;;5014471;28;93288;-69
2022/01/29 05:02:06;;;;;;;32.78;18.13;;;;;;;;;;5009199;28;93631;-69
2022/01/29 05:04:32;;;;;;;42.80;18.95;;;;;;;;;;5005946;28;93622;-69
2022/01/29 05:06:59;;;;;;;31.10;17.95;;;;;;;;;;4997124;28;92469;-69
2022/01/29 05:09:25;;;;;;;35.25;18.02;;;;;;;;;;4994086;28;94417;-69
2022/01/29 05:11:53;;;;;;;32.10;18.67;;;;;;;;;;4986808;28;93249;-69
2022/01/29 05:14:34;;;;;;;33.67;18.05;;;;;;;;;;4975185;28;92523;-70
2022/01/29 05:27:59;;;;;;;33.78;16.25;;;;;;;;;;5002058;28;92492;-70
2022/01/29 05:30:25;;;;;;;24.15;15.80;;;;;;;;;;5010024;28;93975;-70
2022/01/29 05:32:52;;;;;;;26.25;15.55;;;;;;;;;;5011905;28;93788;-69
2022/01/29 05:35:18;;;;;;;26.90;15.98;;;;;;;;;;5010491;28;91788;-69
2022/01/29 05:37:49;;;;;;;25.63;15.25;;;;;;;;;;5005064;28;95016;-69
2022/01/29 05:40:15;;;;;;;30.50;14.95;;;;;;;;;;5004450;28;93594;-69
2022/01/29 05:42:41;;;;;;;28.77;15.85;;;;;;;;;;4976635;28;94855;-70
2022/01/29 05:45:08;;;;;;;27.90;15.45;;;;;;;;;;4993892;28;98067;-69
2022/01/29 05:47:35;;;;;;;24.25;15.13;;;;;;;;;;5003753;28;92566;-69
2022/01/29 05:50:02;;;;;;;19.63;13.80;;;;;;;;;;5011867;28;94198;-69
2022/01/29 05:52:29;;;;;;;25.70;14.88;;;;;;;;;;5005388;28;94606;-69
2022/01/29 05:54:55;;;;;;;21.65;13.93;;;;;;;;;;4998946;28;92505;-69
2022/01/29 05:57:21;;;;;;;21.73;13.68;;;;;;;;;;4993313;28;93603;-69
2022/01/29 05:59:48;;;;;;;27.40;13.15;;;;;;;;;;5011271;28;92758;-69
2022/01/29 06:02:14;;;;;;;18.38;13.85;;;;;;;;;;4982984;28;94541;-69
2022/01/29 06:04:41;;;;;;;20.17;13.25;;;;;;;;;;4986103;28;93950;-69
2022/01/29 06:07:07;;;;;;;19.55;12.73;;;;;;;;;;4979767;28;96541;-68
2022/01/29 06:09:33;;;;;;;22.58;13.10;;;;;;;;;;4996063;28;95707;-69
2022/01/29 06:12:00;;;;;;;21.95;13.10;;;;;;;;;;5006746;28;93297;-68
2022/01/29 06:14:26;;;;;;;25.50;14.70;;;;;;;;;;5001220;28;92612;-68
2022/01/29 06:16:52;;;;;;;26.98;15.07;;;;;;;;;;4998634;28;94106;-68
2022/01/29 06:19:19;;;;;;;19.45;14.88;;;;;;;;;;4999169;28;94194;-68
2022/01/29 06:21:45;;;;;;;35.25;14.50;;;;;;;;;;4999181;28;92574;-68
2022/01/29 06:24:11;;;;;;;28.83;15.52;;;;;;;;;;4991256;28;94073;-69
2022/01/29 06:26:38;;;;;;;25.10;16.13;;;;;;;;;;4990428;28;94047;-68
2022/01/29 06:29:05;;;;;;;25.75;13.65;;;;;;;;;;4992247;28;92444;-69
2022/01/29 06:31:31;;;;;;;27.55;17.33;;;;;;;;;;4989918;28;96944;-69
2022/01/29 06:33:58;;;;;;;28.80;18.92;;;;;;;;;;4990329;28;92591;-69
2022/01/29 06:36:24;;;;;;;27.95;19.13;;;;;;;;;;4991229;28;94069;-69
2022/01/29 06:38:51;;;;;;;29.25;16.92;;;;;;;;;;4990845;28;93723;-72
2022/01/29 06:41:17;;;;;;;20.02;16.90;;;;;;;;;;4990935;28;92833;-69
2022/01/29 06:43:43;;;;;;;30.08;18.15;;;;;;;;;;4991243;28;93181;-69
2022/01/29 06:46:10;;;;;;;27.25;17.27;;;;;;;;;;4991460;28;93198;-69
2022/01/29 06:48:36;;;;;;;26.85;16.80;;;;;;;;;;4991490;28;91725;-69
2022/01/29 06:51:03;;;;;;;16.85;11.68;;;;;;;;;;4994029;28;93934;-69
2022/01/29 06:53:29;;;;;;;29.40;16.52;;;;;;;;;;4990849;28;92581;-69
2022/01/29 06:55:55;;;;;;;29.60;18.15;;;;;;;;;;4988739;28;95085;-69
2022/01/29 06:58:22;;;;;;;27.80;18.98;;;;;;;;;;4990888;28;93718;-69
2022/01/29 07:01:08;;;;;;;34.92;17.45;;;;;;;;;;4990682;28;92710;-69
2022/01/29 07:03:35;;;;;;;28.60;18.42;;;;;;;;;;4991319;28;92846;-69
2022/01/29 07:06:04;;;;;;;26.10;17.63;;;;;;;;;;4990844;28;93462;-68
2022/01/29 07:08:31;;;;;;;22.35;17.75;;;;;;;;;;4989037;28;92369;-69
2022/01/29 07:10:57;;;;;;;28.45;15.55;;;;;;;;;;4993468;28;94218;-69
2022/01/29 07:13:25;;;;;;;22.25;17.13;;;;;;;;;;4991872;28;91756;-69
2022/01/29 07:15:52;;;;;;;23.88;15.85;;;;;;;;;;4990905;28;93610;-69
2022/01/29 07:18:18;;;;;;;26.02;17.63;;;;;;;;;;4990590;28;93413;-69
2022/01/29 07:20:46;;;;;;;25.50;16.23;;;;;;;;;;4989121;28;94895;-69
2022/01/29 07:23:13;;;;;;;21.55;15.20;;;;;;;;;;4988714;28;96214;-69
2022/01/29 07:25:39;;;;;;;28.73;18.60;;;;;;;;;;4990015;28;93486;-70
2022/01/29 07:28:05;;;;;;;27.40;16.73;;;;;;;;;;4990770;28;92443;-70
2022/01/29 07:30:32;;;;;;;29.23;18.98;;;;;;;;;;4993445;28;93218;-69
2022/01/29 07:32:58;;;;;;;32.70;18.77;;;;;;;;;;4997129;28;94985;-70
2022/01/29 07:35:24;;;;;;;30.30;18.30;;;;;;;;;;4994569;28;93772;-69
2022/01/29 07:37:51;;;;;;;26.52;17.45;;;;;;;;;;4993179;28;92829;-69
2022/01/29 07:40:18;;;;;;;35.33;17.90;;;;;;;;;;4994212;28;92502;-69
2022/01/29 07:42:44;;;;;;;22.27;14.70;;;;;;;;;;4993868;28;93540;-69
2022/01/29 07:45:10;;;;;;;29.42;17.73;;;;;;;;;;4991857;28;96656;-68
2022/01/29 07:47:37;;;;;;;28.92;17.00;;;;;;;;;;4993998;28;92876;-69
2022/01/29 07:50:04;;;;;;;26.02;17.50;;;;;;;;;;4993666;28;93402;-68
2022/01/29 07:52:32;;;;;;;35.58;16.85;;;;;;;;;;4992823;28;93422;-68
2022/01/29 07:55:03;;;;;;;28.73;17.10;;;;;;;;;;4998147;28;92654;-69
2022/01/29 07:57:29;;;;;;;25.48;17.10;;;;;;;;;;4994025;28;94338;-69
2022/01/29 07:59:55;;;;;;;25.52;16.35;;;;;;;;;;4992108;28;92857;-69
2022/01/29 08:02:22;;;;;;;28.88;16.05;;;;;;;;;;4993896;28;93264;-69
2022/01/29 08:04:48;;;;;;;27.45;15.45;;;;;;;;;;4993481;28;93556;-70
2022/01/29 08:07:15;;;;;;;23.83;14.73;;;;;;;;;;4993193;28;92632;-69
2022/01/29 08:09:41;;;;;;;25.42;15.50;;;;;;;;;;4991317;28;94930;-69
2022/01/29 08:12:08;;;;;;;30.70;14.70;;;;;;;;;;4993059;28;94451;-69
2022/01/29 08:14:34;;;;;;;28.33;16.00;;;;;;;;;;4993882;28;92934;-69
2022/01/29 08:17:00;;;;;;;31.65;14.45;;;;;;;;;;4996045;28;92914;-69
2022/01/29 08:19:27;;;;;;;23.75;14.52;;;;;;;;;;4992993;28;92897;-69
2022/01/29 08:21:53;;;;;;;25.88;14.88;;;;;;;;;;4993492;28;94742;-69
2022/01/29 08:24:19;;;;;;;23.60;12.88;;;;;;;;;;4991890;28;93332;-69
2022/01/29 08:26:46;;;;;;;25.77;13.68;;;;;;;;;;4993452;28;92063;-69
2022/01/29 08:29:12;;;;;;;19.98;11.57;;;;;;;;;;4994102;28;93311;-69
2022/01/29 08:31:38;;;;;;;25.73;14.23;;;;;;;;;;4994817;28;94070;-68
2022/01/29 08:34:05;;;;;;;23.80;12.93;;;;;;;;;;4990993;28;95358;-69
2022/01/29 08:36:31;;;;;;;15.52;11.48;;;;;;;;;;4993684;28;96690;-69
2022/01/29 08:38:58;;;;;;;18.08;8.85;;;;;;;;;;4996022;28;94340;-68
2022/01/29 08:41:24;;;;;;;19.88;10.00;;;;;;;;;;4993801;28;93823;-69
2022/01/29 08:43:51;;;;;;;18.05;10.75;;;;;;;;;;4994752;28;94351;-68
2022/01/29 08:46:17;;;;;;;23.27;10.90;;;;;;;;;;4992915;28;92582;-68
2022/01/29 08:48:44;;;;;;;19.45;9.68;;;;;;;;;;4991258;28;96229;-68
2022/01/29 08:51:10;;;;;;;18.30;9.88;;;;;;;;;;4993857;28;92815;-68
2022/01/29 08:53:37;;;;;;;19.77;8.48;;;;;;;;;;4993475;28;92529;-68
2022/01/29 08:56:04;;;;;;;17.67;9.10;;;;;;;;;;4992604;28;92899;-68
2022/01/29 08:58:30;;;;;;;23.00;9.77;;;;;;;;;;4991457;28;96318;-68
2022/01/29 09:00:57;;;;;;;13.48;9.50;;;;;;;;;;4996580;28;92885;-69
2022/01/29 09:03:24;;;;;;;16.17;7.93;;;;;;;;;;4993167;28;94578;-68
2022/01/29 09:05:50;;;;;;;16.98;8.82;;;;;;;;;;4993088;28;92483;-68
2022/01/29 09:08:17;;;;;;;16.85;8.52;;;;;;;;;;4992964;28;93970;-68
2022/01/29 09:10:43;;;;;;;16.17;7.60;;;;;;;;;;4993629;28;94282;-69
2022/01/29 09:13:12;;;;;;;13.15;6.55;;;;;;;;;;4993733;28;92823;-69
2022/01/29 09:15:38;;;;;;;16.48;8.50;;;;;;;;;;4997385;28;94110;-69
2022/01/29 09:18:05;;;;;;;17.55;7.55;;;;;;;;;;4999498;28;93976;-69
2022/01/29 09:20:31;;;;;;;19.25;8.20;;;;;;;;;;4988585;28;92455;-69
2022/01/29 09:22:57;;;;;;;14.60;7.03;;;;;;;;;;4993223;28;96510;-69
2022/01/29 09:25:25;;;;;;;13.95;6.50;;;;;;;;;;5002732;28;94433;-69
2022/01/29 09:27:51;;;;;;;11.35;5.97;;;;;;;;;;5005404;28;93283;-69
2022/01/29 09:30:18;;;;;;;20.42;6.70;;;;;;;;;;5002925;28;94206;-69
2022/01/29 09:32:47;;;;;;;18.20;6.65;;;;;;;;;;4997497;28;92600;-69
2022/01/29 09:35:17;;;;;;;13.65;5.65;;;;;;;;;;5002223;28;94082;-69
2022/01/29 09:37:43;;;;;;;20.20;5.90;;;;;;;;;;4994102;28;95502;-70
2022/01/29 09:40:10;;;;;;;15.57;5.22;;;;;;;;;;4992879;28;91757;-70
2022/01/29 09:42:36;;;;;;;13.27;5.05;;;;;;;;;;5004624;28;94080;-70
2022/01/29 09:45:03;;;;;;;16.60;5.25;;;;;;;;;;5012815;28;92503;-69
2022/01/29 09:47:30;;;;;;;12.88;3.30;;;;;;;;;;4990083;28;94944;-70
2022/01/29 09:49:56;;;;;;;16.42;4.35;;;;;;;;;;4981789;28;92521;-70
2022/01/29 09:52:23;;;;;;;10.85;3.42;;;;;;;;;;4999061;28;93016;-70
2022/01/29 09:54:55;;;;;;;21.92;4.10;;;;;;;;;;5001553;28;93444;-69
2022/01/29 09:57:21;;;;;;;25.30;5.10;;;;;;;;;;4991951;28;94134;-69
2022/01/29 09:59:50;;;;;;;16.23;4.57;;;;;;;;;;4995017;28;94220;-70
2022/01/29 10:02:17;;;;;;;12.20;3.90;;;;;;;;;;4990457;28;94044;-70
2022/01/29 10:04:45;;;;;;;14.98;4.20;;;;;;;;;;4985263;28;93114;-70
2022/01/29 10:07:15;;;;;;;13.57;3.40;;;;;;;;;;4991197;28;92987;-69
2022/01/29 10:09:41;;;;;;;15.55;4.28;;;;;;;;;;4992887;28;94642;-70
2022/01/29 10:12:20;;;;;;;16.75;3.70;;;;;;;;;;5002169;28;95637;-70
2022/01/29 10:14:50;;;;;;;18.45;3.92;;;;;;;;;;4984286;28;96480;-70
2022/01/29 10:17:36;;;;;;;10.25;3.13;;;;;;;;;;5004075;28;94271;-70
2022/01/29 10:20:06;;;;;;;15.85;4.20;;;;;;;;;;4998452;28;93148;-69
2022/01/29 10:22:34;;;;;;;12.32;3.38;;;;;;;;;;4999385;28;95713;-69
2022/01/29 10:25:03;;;;;;;9.68;3.08;;;;;;;;;;5009014;28;93350;-70
2022/01/29 10:27:29;;;;;;;9.38;3.35;;;;;;;;;;5015154;28;92523;-69
2022/01/29 10:30:10;;;;;;;10.80;3.40;;;;;;;;;;5001602;28;93801;-69
2022/01/29 10:32:36;;;;;;;16.55;3.58;;;;;;;;;;4991326;28;92629;-69
2022/01/29 10:35:03;;;;;;;13.70;3.30;;;;;;;;;;4990745;28;93168;-69
2022/01/29 10:37:29;;;;;;;15.05;4.05;;;;;;;;;;5005387;28;96997;-69
2022/01/29 10:39:57;;;;;;;8.75;3.40;;;;;;;;;;5006932;28;93104;-69
2022/01/29 10:42:25;;;;;;;14.43;3.00;;;;;;;;;;5012505;28;94150;-69
2022/01/29 10:44:53;;;;;;;7.53;2.45;;;;;;;;;;5009928;28;94280;-69
2022/01/29 10:47:20;;;;;;;18.77;4.00;;;;;;;;;;4996716;28;92432;-69
2022/01/29 10:49:53;;;;;;;9.15;3.00;;;;;;;;;;5005278;28;94407;-69
2022/01/29 10:52:30;;;;;;;11.88;4.05;;;;;;;;;;4998390;28;92491;-70
2022/01/29 10:55:01;;;;;;;11.52;2.95;;;;;;;;;;5011813;28;94046;-72
2022/01/29 10:57:31;;;;;;;10.95;2.70;;;;;;;;;;5006666;28;94211;-69
2022/01/29 10:59:58;;;;;;;8.25;2.97;;;;;;;;;;5011203;28;92489;-69
2022/01/29 11:02:28;;;;;;;9.00;2.25;;;;;;;;;;4995867;28;95329;-69
2022/01/29 11:04:55;;;;;;;6.60;2.50;;;;;;;;;;4991450;28;93417;-69
2022/01/29 11:07:27;;;;;;;10.85;2.65;;;;;;;;;;4988267;28;93918;-69
2022/01/29 11:09:53;;;;;;;23.55;3.50;;;;;;;;;;4999124;28;93084;-69
2022/01/29 11:12:24;;;;;;;10.82;2.55;;;;;;;;;;5005140;28;92661;-68
2022/01/29 11:14:52;;;;;;;4.88;1.80;;;;;;;;;;4974536;28;93268;-68
2022/01/29 11:17:21;;;;;;;16.10;2.53;;;;;;;;;;4985911;28;94186;-69
2022/01/29 11:19:47;;;;;;;8.13;2.30;;;;;;;;;;4991155;28;91943;-69
2022/01/29 11:22:17;;;;;;;7.03;1.83;;;;;;;;;;4990552;28;93173;-69
2022/01/29 11:24:44;;;;;;;17.45;2.47;;;;;;;;;;4998652;28;94083;-70
2022/01/29 11:27:18;;;;;;;8.80;1.92;;;;;;;;;;5000150;28;95006;-70
2022/01/29 11:29:55;;;;;;;5.40;1.67;;;;;;;;;;5009038;28;96628;-68
2022/01/29 11:32:21;;;;;;;20.40;2.90;;;;;;;;;;5010972;28;93794;-69
2022/01/29 11:35:00;;;;;;;5.45;1.50;;;;;;;;;;4997971;28;94222;-69
2022/01/29 11:37:41;;;;;;;6.32;1.92;;;;;;;;;;4999312;28;93726;-69
2022/01/29 11:40:24;;;;;;;7.32;1.77;;;;;;;;;;4988170;28;92529;-69
2022/01/29 11:42:51;;;;;;;4.60;1.83;;;;;;;;;;4997284;28;95608;-69
2022/01/29 11:45:33;;;;;;;3.20;1.77;;;;;;;;;;5011656;28;93754;-69
2022/01/29 11:47:59;;;;;;;4.90;1.60;;;;;;;;;;4993409;28;95472;-69
2022/01/29 11:50:28;;;;;;;5.15;1.83;;;;;;;;;;4989828;28;93721;-69
2022/01/29 11:53:03;;;;;;;6.75;1.98;;;;;;;;;;4992835;28;96733;-69
2022/01/29 11:55:36;;;;;;;4.88;1.73;;;;;;;;;;4977661;28;92524;-69
2022/01/29 11:58:17;;;;;;;12.20;3.17;;;;;;;;;;5002932;28;94084;-69
2022/01/29 12:00:45;;;;;;;6.70;2.30;;;;;;;;;;5006062;28;92410;-68
2022/01/29 12:03:31;;;;;;;4.68;1.70;;;;;;;;;;5008243;28;94253;-69
2022/01/29 12:06:24;;;;;;;6.07;2.25;;;;;;;;;;4996330;28;93589;-70
2022/01/29 12:09:06;;;;;;;10.82;2.00;;;;;;;;;;4978813;28;92602;-70
2022/01/29 12:11:38;;;;;;;10.10;2.88;;;;;;;;;;4994517;28;93943;-69
2022/01/29 12:14:14;;;;;;;8.73;2.42;;;;;;;;;;5001277;28;93535;-69
2022/01/29 12:16:50;;;;;;;7.07;2.40;;;;;;;;;;4997865;28;93587;-70
2022/01/29 12:19:39;;;;;;;3.30;1.73;;;;;;;;;;5004459;28;94897;-68
2022/01/29 12:22:13;;;;;;;13.70;2.85;;;;;;;;;;4989012;28;92667;-69
2022/01/29 12:24:40;;;;;;;11.80;2.50;;;;;;;;;;4991762;28;93723;-69
2022/01/29 12:27:07;;;;;;;5.70;2.25;;;;;;;;;;4993104;28;94303;-69
2022/01/29 12:29:33;;;;;;;7.18;2.38;;;;;;;;;;4994504;28;92552;-69
2022/01/29 12:32:00;;;;;;;3.65;1.30;;;;;;;;;;4997614;28;93935;-71
2022/01/29 12:34:27;;;;;;;7.90;2.03;;;;;;;;;;4994741;28;94243;-70
2022/01/29 12:37:10;;;;;;;6.65;2.25;;;;;;;;;;4996249;28;91897;-70
2022/01/29 12:39:37;;;;;;;8.18;2.05;;;;;;;;;;4994113;28;92552;-70
2022/01/29 12:44:40;;;;;;;7.68;1.85;;;;;;;;;;5003975;28;95486;-71
2022/01/29 12:47:07;;;;;;;13.75;2.35;;;;;;;;;;5004870;28;94610;-70
2022/01/29 12:49:41;;;;;;;6.75;2.13;;;;;;;;;;4995849;28;92515;-71
2022/01/29 12:52:13;;;;;;;8.98;1.98;;;;;;;;;;5004050;28;94258;-71
2022/01/29 12:54:39;;;;;;;5.13;2.27;;;;;;;;;;4998064;28;94087;-70
2022/01/29 12:57:06;;;;;;;7.00;2.05;;;;;;;;;;5008959;28;92589;-71
2022/01/29 12:59:35;;;;;;;8.25;2.08;;;;;;;;;;5010377;28;93129;-71
2022/01/29 13:02:03;;;;;;;9.90;2.65;;;;;;;;;;4996161;28;93524;-70
2022/01/29 13:04:30;;;;;;;8.55;1.73;;;;;;;;;;4996650;28;92480;-69
2022/01/29 13:07:00;;;;;;;6.03;1.70;;;;;;;;;;5003098;28;94208;-70
2022/01/29 13:09:27;;;;;;;12.32;2.25;;;;;;;;;;4994699;28;96275;-69
2022/01/29 13:11:57;;;;;;;6.03;1.60;;;;;;;;;;4997032;28;96681;-70
2022/01/29 13:14:24;;;;;;;7.28;2.15;;;;;;;;;;4994106;28;94250;-70
2022/01/29 13:16:52;;;;;;;5.45;1.98;;;;;;;;;;4973809;28;92518;-69
2022/01/29 13:19:20;;;;;;;13.43;2.22;;;;;;;;;;4993832;28;92491;-69
2022/01/29 13:21:46;;;;;;;20.50;2.80;;;;;;;;;;4993265;28;93410;-70
2022/01/29 13:24:31;;;;;;;7.57;1.90;;;;;;;;;;4997256;28;93210;-69
2022/01/29 13:27:02;;;;;;;9.80;2.40;;;;;;;;;;5009174;28;93814;-69
2022/01/29 13:29:33;;;;;;;11.73;2.83;;;;;;;;;;4994961;28;92983;-69
2022/01/29 13:32:01;;;;;;;18.45;5.10;;;;;;;;;;5003682;28;93176;-69
2022/01/29 13:34:28;;;;;;;8.80;2.67;;;;;;;;;;5005453;28;95558;-69
2022/01/29 13:36:55;;;;;;;21.17;3.97;;;;;;;;;;4992831;28;93219;-69
2022/01/29 13:39:22;;;;;;;8.95;2.30;;;;;;;;;;4994930;28;93521;-69
2022/01/29 13:42:04;;;;;;;8.73;2.42;;;;;;;;;;4995521;28;93253;-69
2022/01/29 13:44:30;;;;;;;10.82;2.00;;;;;;;;;;4986701;28;93763;-69
2022/01/29 13:47:07;;;;;;;12.73;2.55;;;;;;;;;;4998635;28;93308;-70
2022/01/29 13:49:34;;;;;;;7.78;1.98;;;;;;;;;;5000245;28;92820;-70
2022/01/29 13:52:11;;;;;;;7.47;2.47;;;;;;;;;;5014388;28;93290;-69
2022/01/29 13:54:37;;;;;;;8.02;2.05;;;;;;;;;;5001895;28;93434;-69
2022/01/29 13:57:05;;;;;;;19.00;2.30;;;;;;;;;;4991736;28;92520;-69
2022/01/29 13:59:31;;;;;;;7.78;1.67;;;;;;;;;;5001777;28;96581;-69
2022/01/29 14:02:03;;;;;;;5.95;1.95;;;;;;;;;;5011905;28;93181;-69
2022/01/29 14:04:34;;;;;;;10.63;2.30;;;;;;;;;;4998954;28;92643;-69
2022/01/29 14:07:02;;;;;;;5.85;2.08;;;;;;;;;;4972885;28;93904;-69
2022/01/29 14:12:01;;;;;;;12.88;3.08;;;;;;;;;;5011103;28;93304;-68
2022/01/29 14:14:29;;;;;;;10.68;2.28;;;;;;;;;;4999036;28;94314;-68
2022/01/29 14:16:56;;;;;;;7.85;1.90;;;;;;;;;;5003367;28;92730;-68
2022/01/29 14:19:23;;;;;;;10.23;2.03;;;;;;;;;;4998919;28;94255;-68
2022/01/29 14:21:50;;;;;;;9.70;2.33;;;;;;;;;;4999148;28;93151;-69
2022/01/29 14:24:17;;;;;;;6.50;1.80;;;;;;;;;;4998774;28;96290;-68
2022/01/29 14:26:44;;;;;;;8.10;2.03;;;;;;;;;;5002759;28;95343;-70
2022/01/29 14:29:11;;;;;;;6.65;2.97;;;;;;;;;;4996138;28;94405;-68
2022/01/29 14:31:37;;;;;;;6.90;1.52;;;;;;;;;;5005574;28;92478;-68
2022/01/29 14:34:05;;;;;;;7.10;2.67;;;;;;;;;;4991567;28;93266;-68
2022/01/29 14:36:32;;;;;;;7.18;2.45;;;;;;;;;;4997912;28;92461;-68
2022/01/29 14:38:58;;;;;;;8.73;2.75;;;;;;;;;;5008551;28;93821;-68
2022/01/29 14:41:25;;;;;;;6.20;2.08;;;;;;;;;;4997119;28;93623;-68
2022/01/29 14:43:51;;;;;;;4.25;1.60;;;;;;;;;;4997154;28;92607;-68
2022/01/29 14:46:18;;;;;;;8.15;2.53;;;;;;;;;;4997467;28;95820;-68
2022/01/29 14:48:44;;;;;;;7.40;1.70;;;;;;;;;;5011174;28;95768;-68